X  Sluiten METAR luchtvaart weer gegevens      EHLE Lelystad Airport
Temperatuur
10°C Temperatuur
9°C Dauwpunt
94% Vochtigheid



Wind
19 KM/U
12 MPH
5 M/S
10 KTS



220°
ZW
Huidig weer

Wat bewolking Wat bewolking
Luchtdruk 992.89 (hPa) - 29.32 (inHg)
Zicht 6 (mijl) - 9.7 (km)
Vliegveld
Vliegveld code EHLE

Locatie : Lelystad Airport
Afstand: 25 (km)

Metar:
EHLE 220625Z AUTO 22010KT 180V240 9999 FEW009 SCT010 BKN014 10/09 Q0993 NOSIG

Tijd: 22-02-2024 07:25 CET